createdAt,value
2023-02-01T00:00:17.410Z,93.79
2023-02-01T00:05:18.819Z,92.49
2023-02-01T00:10:20.619Z,92.55
2023-02-01T00:15:24.022Z,92.15
2023-02-01T00:20:25.495Z,91.88
2023-02-01T00:25:26.941Z,91.89
2023-02-01T00:30:28.596Z,91.90
2023-02-01T00:35:30.216Z,91.26
2023-02-01T00:40:31.845Z,91.49
2023-02-01T00:45:33.270Z,91.46
2023-02-01T00:50:34.673Z,92.08
2023-02-01T00:55:36.169Z,91.20
2023-02-01T01:00:37.775Z,91.69
2023-02-01T01:05:39.210Z,91.95
2023-02-01T01:10:41.519Z,92.63
2023-02-01T01:15:43.109Z,92.04
2023-02-01T01:20:44.681Z,91.87
2023-02-01T01:25:46.088Z,92.06
2023-02-01T01:30:47.658Z,92.00
2023-02-01T01:35:49.074Z,92.21
2023-02-01T01:40:53.371Z,92.07
2023-02-01T01:45:54.818Z,92.59
2023-02-01T01:51:07.792Z,92.38
2023-02-01T01:56:09.290Z,91.46
2023-02-01T02:01:10.980Z,92.38
2023-02-01T02:06:35.978Z,92.99
2023-02-01T02:11:37.547Z,92.45
2023-02-01T02:16:54.074Z,92.81
2023-02-01T02:22:07.646Z,93.56
2023-02-01T02:27:41.633Z,93.41
2023-02-01T02:33:24.386Z,92.93
2023-02-01T02:38:40.025Z,92.74
2023-02-01T02:44:16.529Z,93.33
2023-02-01T02:49:30.297Z,93.62
2023-02-01T02:54:49.734Z,93.86
2023-02-01T03:00:10.596Z,94.26
2023-02-01T03:05:12.167Z,93.47
2023-02-01T03:10:30.878Z,93.26
2023-02-01T03:15:50.837Z,94.08
2023-02-01T03:20:54.605Z,94.42
2023-02-01T03:25:58.959Z,94.43
2023-02-01T03:31:01.102Z,93.87
2023-02-01T03:36:20.227Z,93.50
2023-02-01T03:41:27.936Z,93.09
2023-02-01T03:46:42.409Z,92.88
2023-02-01T03:51:43.923Z,93.05
2023-02-01T03:56:48.448Z,92.96
2023-02-01T04:01:49.897Z,92.10
2023-02-01T04:06:51.702Z,92.74
2023-02-01T04:11:53.129Z,92.16
2023-02-01T04:16:55.249Z,91.73
2023-02-01T04:21:56.738Z,92.67
2023-02-01T04:26:58.151Z,93.17
2023-02-01T04:31:59.626Z,93.06
2023-02-01T04:37:01.191Z,92.78
2023-02-01T04:42:02.639Z,92.83
2023-02-01T04:47:04.069Z,93.10
2023-02-01T04:52:05.499Z,92.88
2023-02-01T04:57:07.043Z,93.06
2023-02-01T05:02:08.501Z,93.29
2023-02-01T05:07:09.950Z,94.39
2023-02-01T05:12:43.352Z,95.18
2023-02-01T05:17:44.769Z,95.54
2023-02-01T05:22:46.229Z,96.94
2023-02-01T05:27:47.660Z,96.87
2023-02-01T05:32:53.519Z,96.71
2023-02-01T05:37:55.050Z,98.48
2023-02-01T05:42:56.505Z,98.26
2023-02-01T05:47:57.946Z,97.05
2023-02-01T05:52:59.366Z,96.49
2023-02-01T05:58:00.950Z,97.12
2023-02-01T06:03:02.674Z,95.76
2023-02-01T06:08:04.456Z,95.47
2023-02-01T06:13:06.208Z,95.83
2023-02-01T06:18:07.632Z,94.93
2023-02-01T06:23:09.133Z,94.55
2023-02-01T06:28:10.537Z,93.97
2023-02-01T06:33:12.082Z,93.79
2023-02-01T06:38:13.969Z,93.62
2023-02-01T06:43:15.408Z,92.76
2023-02-01T06:48:16.888Z,92.93
2023-02-01T06:53:18.333Z,92.52
2023-02-01T06:58:19.942Z,92.37
2023-02-01T07:03:21.465Z,91.43
2023-02-01T07:08:22.905Z,91.65
2023-02-01T07:13:24.372Z,92.41
2023-02-01T07:18:25.837Z,91.87
2023-02-01T07:23:28.369Z,91.74
2023-02-01T07:28:31.967Z,92.41
2023-02-01T07:33:33.608Z,93.12
2023-02-01T07:38:35.303Z,93.24
2023-02-01T07:43:37.267Z,92.66
2023-02-01T07:48:39.094Z,91.97
2023-02-01T07:53:41.717Z,91.63
2023-02-01T07:58:43.954Z,91.13
2023-02-01T08:03:45.431Z,91.33
2023-02-01T08:08:48.182Z,91.74
2023-02-01T08:13:49.968Z,91.64
2023-02-01T08:18:52.296Z,90.78
2023-02-01T08:23:53.800Z,91.73
2023-02-01T08:29:00.765Z,93.46
2023-02-01T08:34:05.213Z,93.25
2023-02-01T08:39:09.933Z,92.56
2023-02-01T08:44:11.629Z,91.80
2023-02-01T08:49:13.093Z,91.95
2023-02-01T08:54:14.509Z,91.74
2023-02-01T08:59:15.949Z,91.00
2023-02-01T09:04:17.462Z,91.43
2023-02-01T09:09:18.977Z,90.83
2023-02-01T09:14:20.414Z,90.01
2023-02-01T09:19:26.360Z,88.76
2023-02-01T09:24:28.739Z,88.20
2023-02-01T09:29:30.184Z,87.54
2023-02-01T09:34:31.797Z,84.96
2023-02-01T09:39:33.290Z,84.18
2023-02-01T09:44:52.944Z,84.96
2023-02-01T09:50:12.290Z,84.59
2023-02-01T09:55:33.883Z,84.77
2023-02-01T10:00:38.490Z,84.92
2023-02-01T10:06:11.083Z,84.02
2023-02-01T10:11:26.508Z,84.16
2023-02-01T10:16:56.877Z,83.49
2023-02-01T10:22:03.400Z,83.43
2023-02-01T10:27:07.569Z,82.81
2023-02-01T10:32:22.253Z,81.99
2023-02-01T10:37:32.290Z,82.67
2023-02-01T10:42:34.017Z,80.94
2023-02-01T10:47:35.612Z,80.73
2023-02-01T10:53:05.676Z,80.59
2023-02-01T10:58:16.272Z,80.89
2023-02-01T11:03:33.580Z,80.21
2023-02-01T11:08:44.987Z,80.23
2023-02-01T11:13:54.279Z,80.61
2023-02-01T11:18:58.770Z,81.26
2023-02-01T11:24:10.159Z,81.75
2023-02-01T11:29:18.617Z,82.33
2023-02-01T11:34:23.523Z,82.31
2023-02-01T11:39:29.824Z,81.45
2023-02-01T11:44:34.311Z,81.46
2023-02-01T11:49:35.840Z,81.51
2023-02-01T11:54:50.954Z,81.92
2023-02-01T12:00:18.167Z,82.09
2023-02-01T12:05:32.824Z,81.23
2023-02-01T12:11:02.761Z,81.17
2023-02-01T12:16:20.582Z,80.71
2023-02-01T12:21:28.450Z,81.80
2023-02-01T12:26:51.918Z,83.42
2023-02-01T12:32:08.519Z,84.59
2023-02-01T12:37:33.533Z,84.43
2023-02-01T12:42:42.225Z,84.70
2023-02-01T12:47:51.887Z,84.40
2023-02-01T12:52:56.092Z,84.79
2023-02-01T12:58:10.256Z,84.50
2023-02-01T13:03:24.982Z,83.76
2023-02-01T13:08:44.320Z,84.25
2023-02-01T13:14:01.129Z,83.71
2023-02-01T13:19:18.981Z,84.24
2023-02-01T13:24:34.934Z,85.24
2023-02-01T13:29:37.960Z,85.54
2023-02-01T13:34:55.460Z,86.17
2023-02-01T13:40:24.866Z,86.44
2023-02-01T13:45:31.096Z,86.33
2023-02-01T13:50:34.896Z,85.76
2023-02-01T13:55:39.383Z,84.61
2023-02-01T14:00:43.932Z,84.17
2023-02-01T14:05:45.463Z,83.67
2023-02-01T14:10:52.021Z,83.31
2023-02-01T14:16:05.742Z,82.06
2023-02-01T14:21:22.940Z,81.46
2023-02-01T14:26:26.901Z,80.50
2023-02-01T14:31:50.326Z,79.19
2023-02-01T14:37:00.631Z,77.84
2023-02-01T14:42:17.114Z,78.21
2023-02-01T14:47:21.607Z,77.11
2023-02-01T14:52:31.190Z,77.64
2023-02-01T14:57:36.309Z,77.18
2023-02-01T15:02:40.892Z,76.11
2023-02-01T15:07:42.531Z,77.04
2023-02-01T15:12:49.281Z,75.69
2023-02-01T15:18:00.904Z,76.28
2023-02-01T15:23:16.971Z,75.67
2023-02-01T15:28:19.181Z,74.67
2023-02-01T15:33:21.388Z,75.09
2023-02-01T15:38:32.141Z,75.14
2023-02-01T15:43:40.898Z,75.08
2023-02-01T15:48:55.422Z,75.31
2023-02-01T15:54:03.642Z,76.22
2023-02-01T15:59:13.937Z,75.96
2023-02-01T16:04:27.797Z,76.34
2023-02-01T16:09:41.176Z,76.14
2023-02-01T16:14:42.660Z,76.23
2023-02-01T16:19:44.178Z,75.66
2023-02-01T16:24:45.702Z,75.94
2023-02-01T16:29:47.136Z,75.46
2023-02-01T16:34:49.391Z,75.20
2023-02-01T16:39:51.366Z,76.09
2023-02-01T16:44:52.812Z,75.63
2023-02-01T16:49:54.230Z,76.18
2023-02-01T16:54:55.707Z,75.99
2023-02-01T16:59:57.842Z,75.71
2023-02-01T17:04:59.384Z,75.47
2023-02-01T17:10:00.875Z,75.82
2023-02-01T17:15:02.336Z,76.20
2023-02-01T17:20:04.398Z,75.80
2023-02-01T17:25:14.569Z,77.02
2023-02-01T17:30:16.644Z,76.96
2023-02-01T17:35:24.627Z,76.78
2023-02-01T17:40:28.141Z,77.39
2023-02-01T17:45:37.847Z,78.24
2023-02-01T17:50:39.922Z,77.91
2023-02-01T17:55:44.599Z,78.99
2023-02-01T18:00:48.211Z,77.94
2023-02-01T18:05:51.813Z,78.14
2023-02-01T18:11:02.092Z,77.12
2023-02-01T18:16:04.504Z,76.99
2023-02-01T18:21:06.138Z,77.35
2023-02-01T18:26:11.409Z,77.23
2023-02-01T18:31:22.179Z,76.90
2023-02-01T18:36:24.367Z,77.01
2023-02-01T18:41:26.231Z,75.31
2023-02-01T18:46:29.071Z,75.90
2023-02-01T18:51:30.583Z,75.36
2023-02-01T18:56:32.441Z,74.72
2023-02-01T19:01:33.952Z,75.09
2023-02-01T19:06:35.405Z,75.63
2023-02-01T19:11:36.931Z,75.27
2023-02-01T19:16:39.826Z,75.95
2023-02-01T19:21:41.365Z,75.51
2023-02-01T19:26:43.726Z,76.29
2023-02-01T19:31:47.543Z,76.43
2023-02-01T19:36:49.992Z,77.12
2023-02-01T19:41:54.898Z,77.31
2023-02-01T19:46:56.536Z,76.53
2023-02-01T19:51:57.931Z,78.14
2023-02-01T19:56:59.364Z,77.11
2023-02-01T20:01:59.964Z,77.10
2023-02-01T20:07:01.414Z,77.24
2023-02-01T20:12:03.972Z,77.31
2023-02-01T20:17:06.531Z,77.13
2023-02-01T20:22:08.295Z,76.84
2023-02-01T20:27:10.700Z,76.73
2023-02-01T20:32:12.220Z,76.68
2023-02-01T20:37:13.643Z,77.38
2023-02-01T20:42:15.122Z,76.74
2023-02-01T20:47:16.624Z,77.07
2023-02-01T20:52:18.042Z,76.48
2023-02-01T20:57:20.562Z,77.52
2023-02-01T21:02:22.059Z,77.34
2023-02-01T21:07:23.691Z,76.67
2023-02-01T21:12:25.284Z,76.73
2023-02-01T21:17:28.546Z,77.43
2023-02-01T21:22:30.035Z,77.33
2023-02-01T21:27:31.460Z,77.54
2023-02-01T21:32:34.087Z,77.74
2023-02-01T21:37:35.570Z,79.06
2023-02-01T21:42:39.209Z,80.68
2023-02-01T21:47:41.135Z,81.77
2023-02-01T21:52:43.058Z,82.74
2023-02-01T21:57:44.527Z,82.60
2023-02-01T22:02:46.307Z,83.26
2023-02-01T22:07:47.780Z,83.52
2023-02-01T22:12:49.204Z,82.54
2023-02-01T22:17:50.642Z,82.61
2023-02-01T22:22:52.115Z,82.74
2023-02-01T22:28:32.185Z,82.09
2023-02-01T22:33:15.036Z,83.87
2023-02-01T22:38:17.235Z,85.36
2023-02-01T22:43:18.646Z,85.83
2023-02-01T22:48:20.385Z,87.15
2023-02-01T22:53:21.789Z,87.10
2023-02-01T22:58:23.969Z,88.64
2023-02-01T23:03:25.386Z,88.94
2023-02-01T23:08:27.125Z,89.00
2023-02-01T23:13:28.500Z,90.35
2023-02-01T23:18:29.992Z,89.84
2023-02-01T23:23:31.395Z,89.24
2023-02-01T23:28:33.142Z,89.23
2023-02-01T23:33:35.498Z,88.81
2023-02-01T23:38:36.891Z,89.12
2023-02-01T23:43:57.567Z,88.98
2023-02-01T23:54:09.196Z,89.55
2023-02-01T23:59:16.329Z,89.18
